sensor_id;sensor_type;location;lat;lon;timestamp;P1;durP1;ratioP1;P2;durP2;ratioP2
57663;SDS011;43493;53.098;6.064;2022-11-15T00:00:46;25.40;;;18.47;;
57663;SDS011;43493;53.098;6.064;2022-11-15T00:03:24;26.97;;;20.43;;
57663;SDS011;43493;53.098;6.064;2022-11-15T00:05:51;26.13;;;20.80;;
57663;SDS011;43493;53.098;6.064;2022-11-15T00:08:17;27.87;;;21.70;;
57663;SDS011;43493;53.098;6.064;2022-11-15T00:10:43;29.97;;;21.40;;
57663;SDS011;43493;53.098;6.064;2022-11-15T00:13:18;29.73;;;21.60;;
57663;SDS011;43493;53.098;6.064;2022-11-15T00:15:44;27.97;;;21.03;;
57663;SDS011;43493;53.098;6.064;2022-11-15T00:18:12;26.30;;;19.90;;
57663;SDS011;43493;53.098;6.064;2022-11-15T00:20:38;26.93;;;20.57;;
57663;SDS011;43493;53.098;6.064;2022-11-15T00:23:04;25.77;;;19.37;;
57663;SDS011;43493;53.098;6.064;2022-11-15T00:25:30;25.57;;;21.30;;
57663;SDS011;43493;53.098;6.064;2022-11-15T00:27:57;26.00;;;19.73;;
57663;SDS011;43493;53.098;6.064;2022-11-15T00:30:24;25.57;;;19.57;;
57663;SDS011;43493;53.098;6.064;2022-11-15T00:32:50;28.00;;;20.70;;
57663;SDS011;43493;53.098;6.064;2022-11-15T00:35:15;23.83;;;19.00;;
57663;SDS011;43493;53.098;6.064;2022-11-15T00:37:41;24.07;;;18.17;;
57663;SDS011;43493;53.098;6.064;2022-11-15T00:40:07;23.33;;;17.73;;
57663;SDS011;43493;53.098;6.064;2022-11-15T00:42:34;24.93;;;19.07;;
57663;SDS011;43493;53.098;6.064;2022-11-15T00:44:59;24.67;;;18.03;;
57663;SDS011;43493;53.098;6.064;2022-11-15T00:47:25;22.93;;;18.00;;
57663;SDS011;43493;53.098;6.064;2022-11-15T00:49:51;23.23;;;18.33;;
57663;SDS011;43493;53.098;6.064;2022-11-15T00:52:16;22.53;;;18.57;;
57663;SDS011;43493;53.098;6.064;2022-11-15T00:54:42;22.83;;;17.67;;
57663;SDS011;43493;53.098;6.064;2022-11-15T00:57:08;22.73;;;18.67;;
57663;SDS011;43493;53.098;6.064;2022-11-15T00:59:34;25.73;;;18.90;;
57663;SDS011;43493;53.098;6.064;2022-11-15T01:01:59;25.13;;;19.30;;
57663;SDS011;43493;53.098;6.064;2022-11-15T01:04:26;23.73;;;19.90;;
57663;SDS011;43493;53.098;6.064;2022-11-15T01:06:52;22.67;;;18.70;;
57663;SDS011;43493;53.098;6.064;2022-11-15T01:09:18;25.00;;;20.13;;
57663;SDS011;43493;53.098;6.064;2022-11-15T01:11:43;23.80;;;19.13;;
57663;SDS011;43493;53.098;6.064;2022-11-15T01:14:09;25.60;;;20.07;;
57663;SDS011;43493;53.098;6.064;2022-11-15T01:16:35;25.30;;;19.60;;
57663;SDS011;43493;53.098;6.064;2022-11-15T01:19:00;27.90;;;20.37;;
57663;SDS011;43493;53.098;6.064;2022-11-15T01:21:26;25.57;;;19.83;;
57663;SDS011;43493;53.098;6.064;2022-11-15T01:23:52;25.83;;;20.93;;
57663;SDS011;43493;53.098;6.064;2022-11-15T01:26:20;26.00;;;21.47;;
57663;SDS011;43493;53.098;6.064;2022-11-15T01:28:46;26.23;;;20.80;;
57663;SDS011;43493;53.098;6.064;2022-11-15T01:31:13;27.17;;;20.20;;
57663;SDS011;43493;53.098;6.064;2022-11-15T01:33:46;25.50;;;20.87;;
57663;SDS011;43493;53.098;6.064;2022-11-15T01:36:21;25.60;;;21.20;;
57663;SDS011;43493;53.098;6.064;2022-11-15T01:38:54;27.57;;;21.83;;
57663;SDS011;43493;53.098;6.064;2022-11-15T01:41:22;29.30;;;22.33;;
57663;SDS011;43493;53.098;6.064;2022-11-15T01:43:52;29.57;;;21.97;;
57663;SDS011;43493;53.098;6.064;2022-11-15T01:48:50;26.00;;;20.40;;
57663;SDS011;43493;53.098;6.064;2022-11-15T01:51:20;29.10;;;20.67;;
57663;SDS011;43493;53.098;6.064;2022-11-15T01:53:49;26.63;;;19.53;;
57663;SDS011;43493;53.098;6.064;2022-11-15T01:56:23;27.40;;;20.60;;
57663;SDS011;43493;53.098;6.064;2022-11-15T01:58:53;25.27;;;20.10;;
57663;SDS011;43493;53.098;6.064;2022-11-15T02:01:21;28.23;;;20.53;;
57663;SDS011;43493;53.098;6.064;2022-11-15T02:03:54;27.23;;;19.70;;
57663;SDS011;43493;53.098;6.064;2022-11-15T02:06:24;26.90;;;19.88;;
57663;SDS011;43493;53.098;6.064;2022-11-15T02:08:50;24.67;;;19.03;;
57663;SDS011;43493;53.098;6.064;2022-11-15T02:11:16;25.33;;;19.23;;
57663;SDS011;43493;53.098;6.064;2022-11-15T02:13:42;27.77;;;19.03;;
57663;SDS011;43493;53.098;6.064;2022-11-15T02:18:41;25.50;;;19.20;;
57663;SDS011;43493;53.098;6.064;2022-11-15T02:21:37;23.00;;;18.43;;
57663;SDS011;43493;53.098;6.064;2022-11-15T02:32:35;27.08;;;19.00;;
57663;SDS011;43493;53.098;6.064;2022-11-15T02:40:29;29.40;;;20.40;;
57663;SDS011;43493;53.098;6.064;2022-11-15T02:43:07;26.70;;;18.53;;
57663;SDS011;43493;53.098;6.064;2022-11-15T02:46:08;27.07;;;19.63;;
57663;SDS011;43493;53.098;6.064;2022-11-15T02:48:45;30.87;;;20.50;;
57663;SDS011;43493;53.098;6.064;2022-11-15T02:51:11;29.70;;;20.77;;
57663;SDS011;43493;53.098;6.064;2022-11-15T02:53:38;30.00;;;20.57;;
57663;SDS011;43493;53.098;6.064;2022-11-15T02:56:04;31.60;;;20.63;;
57663;SDS011;43493;53.098;6.064;2022-11-15T03:09:35;33.03;;;21.10;;
57663;SDS011;43493;53.098;6.064;2022-11-15T03:12:36;31.53;;;20.70;;
57663;SDS011;43493;53.098;6.064;2022-11-15T03:15:13;33.40;;;21.30;;
57663;SDS011;43493;53.098;6.064;2022-11-15T03:17:51;34.77;;;21.07;;
57663;SDS011;43493;53.098;6.064;2022-11-15T03:20:46;33.70;;;22.20;;
57663;SDS011;43493;53.098;6.064;2022-11-15T03:23:13;35.53;;;21.10;;
57663;SDS011;43493;53.098;6.064;2022-11-15T03:25:43;37.40;;;23.30;;
57663;SDS011;43493;53.098;6.064;2022-11-15T03:28:14;36.07;;;22.80;;
57663;SDS011;43493;53.098;6.064;2022-11-15T03:30:45;38.93;;;22.30;;
57663;SDS011;43493;53.098;6.064;2022-11-15T03:33:14;40.90;;;23.77;;
57663;SDS011;43493;53.098;6.064;2022-11-15T03:35:40;41.33;;;23.03;;
57663;SDS011;43493;53.098;6.064;2022-11-15T03:38:25;43.17;;;25.53;;
57663;SDS011;43493;53.098;6.064;2022-11-15T03:40:57;41.70;;;25.38;;
57663;SDS011;43493;53.098;6.064;2022-11-15T03:43:36;42.17;;;23.97;;
57663;SDS011;43493;53.098;6.064;2022-11-15T03:46:11;42.37;;;24.13;;
57663;SDS011;43493;53.098;6.064;2022-11-15T03:48:56;43.63;;;24.17;;
57663;SDS011;43493;53.098;6.064;2022-11-15T03:51:29;43.10;;;24.13;;
57663;SDS011;43493;53.098;6.064;2022-11-15T03:53:55;47.33;;;25.90;;
57663;SDS011;43493;53.098;6.064;2022-11-15T03:56:21;46.73;;;25.73;;
57663;SDS011;43493;53.098;6.064;2022-11-15T03:58:46;46.77;;;27.13;;
57663;SDS011;43493;53.098;6.064;2022-11-15T04:01:12;47.70;;;25.73;;
57663;SDS011;43493;53.098;6.064;2022-11-15T04:03:38;51.13;;;26.43;;
57663;SDS011;43493;53.098;6.064;2022-11-15T04:06:03;51.00;;;26.40;;
57663;SDS011;43493;53.098;6.064;2022-11-15T04:08:29;47.30;;;25.50;;
57663;SDS011;43493;53.098;6.064;2022-11-15T04:10:55;50.07;;;27.13;;
57663;SDS011;43493;53.098;6.064;2022-11-15T04:13:20;51.83;;;27.10;;
57663;SDS011;43493;53.098;6.064;2022-11-15T04:15:46;45.60;;;25.43;;
57663;SDS011;43493;53.098;6.064;2022-11-15T04:18:12;52.73;;;27.07;;
57663;SDS011;43493;53.098;6.064;2022-11-15T04:20:37;54.20;;;27.20;;
57663;SDS011;43493;53.098;6.064;2022-11-15T04:23:22;52.53;;;27.13;;
57663;SDS011;43493;53.098;6.064;2022-11-15T04:26:25;48.72;;;25.80;;
57663;SDS011;43493;53.098;6.064;2022-11-15T04:28:50;52.77;;;27.00;;
57663;SDS011;43493;53.098;6.064;2022-11-15T04:31:34;58.63;;;28.63;;
57663;SDS011;43493;53.098;6.064;2022-11-15T04:34:00;55.30;;;27.40;;
57663;SDS011;43493;53.098;6.064;2022-11-15T04:36:26;52.87;;;26.83;;
57663;SDS011;43493;53.098;6.064;2022-11-15T04:39:10;53.17;;;27.10;;
57663;SDS011;43493;53.098;6.064;2022-11-15T04:41:36;45.33;;;25.77;;
57663;SDS011;43493;53.098;6.064;2022-11-15T04:44:01;46.03;;;25.00;;
57663;SDS011;43493;53.098;6.064;2022-11-15T04:46:27;53.63;;;26.53;;
57663;SDS011;43493;53.098;6.064;2022-11-15T04:48:53;52.67;;;27.57;;
57663;SDS011;43493;53.098;6.064;2022-11-15T04:51:19;55.57;;;26.40;;
57663;SDS011;43493;53.098;6.064;2022-11-15T04:53:45;51.57;;;27.23;;
57663;SDS011;43493;53.098;6.064;2022-11-15T04:56:11;55.00;;;28.20;;
57663;SDS011;43493;53.098;6.064;2022-11-15T04:58:37;52.30;;;27.07;;
57663;SDS011;43493;53.098;6.064;2022-11-15T05:01:10;59.83;;;29.93;;
57663;SDS011;43493;53.098;6.064;2022-11-15T05:03:39;53.87;;;28.67;;
57663;SDS011;43493;53.098;6.064;2022-11-15T05:06:24;64.18;;;29.67;;
57663;SDS011;43493;53.098;6.064;2022-11-15T05:08:49;60.27;;;30.07;;
57663;SDS011;43493;53.098;6.064;2022-11-15T05:11:15;61.40;;;29.53;;
57663;SDS011;43493;53.098;6.064;2022-11-15T05:13:41;67.17;;;33.10;;
57663;SDS011;43493;53.098;6.064;2022-11-15T05:16:06;53.83;;;29.50;;
57663;SDS011;43493;53.098;6.064;2022-11-15T05:18:32;62.33;;;31.47;;
57663;SDS011;43493;53.098;6.064;2022-11-15T05:21:04;55.47;;;28.87;;
57663;SDS011;43493;53.098;6.064;2022-11-15T05:23:32;67.00;;;33.30;;
57663;SDS011;43493;53.098;6.064;2022-11-15T05:26:04;64.00;;;31.83;;
57663;SDS011;43493;53.098;6.064;2022-11-15T05:28:32;67.15;;;31.45;;
57663;SDS011;43493;53.098;6.064;2022-11-15T05:31:02;61.77;;;31.27;;
57663;SDS011;43493;53.098;6.064;2022-11-15T05:33:29;61.83;;;32.40;;
57663;SDS011;43493;53.098;6.064;2022-11-15T05:35:57;65.33;;;31.90;;
57663;SDS011;43493;53.098;6.064;2022-11-15T05:38:29;54.83;;;32.23;;
57663;SDS011;43493;53.098;6.064;2022-11-15T05:40:55;60.33;;;31.30;;
57663;SDS011;43493;53.098;6.064;2022-11-15T05:43:20;66.23;;;35.00;;
57663;SDS011;43493;53.098;6.064;2022-11-15T05:45:47;79.10;;;35.23;;
57663;SDS011;43493;53.098;6.064;2022-11-15T05:48:13;91.83;;;38.20;;
57663;SDS011;43493;53.098;6.064;2022-11-15T05:50:41;71.93;;;35.60;;
57663;SDS011;43493;53.098;6.064;2022-11-15T05:53:08;79.40;;;37.90;;
57663;SDS011;43493;53.098;6.064;2022-11-15T05:55:37;86.63;;;38.80;;
57663;SDS011;43493;53.098;6.064;2022-11-15T05:58:04;80.57;;;37.23;;
57663;SDS011;43493;53.098;6.064;2022-11-15T06:00:29;92.27;;;40.60;;
57663;SDS011;43493;53.098;6.064;2022-11-15T06:02:55;100.73;;;40.50;;
57663;SDS011;43493;53.098;6.064;2022-11-15T06:05:21;96.20;;;40.03;;
57663;SDS011;43493;53.098;6.064;2022-11-15T06:07:46;87.43;;;40.37;;
57663;SDS011;43493;53.098;6.064;2022-11-15T06:10:12;81.70;;;36.97;;
57663;SDS011;43493;53.098;6.064;2022-11-15T06:12:38;76.80;;;37.97;;
57663;SDS011;43493;53.098;6.064;2022-11-15T06:15:03;87.40;;;37.63;;
57663;SDS011;43493;53.098;6.064;2022-11-15T06:17:29;85.27;;;40.43;;
57663;SDS011;43493;53.098;6.064;2022-11-15T06:19:55;82.17;;;39.23;;
57663;SDS011;43493;53.098;6.064;2022-11-15T06:22:21;85.83;;;37.93;;
57663;SDS011;43493;53.098;6.064;2022-11-15T06:24:46;79.57;;;39.40;;
57663;SDS011;43493;53.098;6.064;2022-11-15T06:27:12;86.53;;;39.50;;
57663;SDS011;43493;53.098;6.064;2022-11-15T06:29:38;80.57;;;37.30;;
57663;SDS011;43493;53.098;6.064;2022-11-15T06:32:03;82.33;;;39.03;;
57663;SDS011;43493;53.098;6.064;2022-11-15T06:34:29;89.57;;;40.13;;
57663;SDS011;43493;53.098;6.064;2022-11-15T06:36:55;95.57;;;42.30;;
57663;SDS011;43493;53.098;6.064;2022-11-15T06:39:21;83.87;;;40.47;;
57663;SDS011;43493;53.098;6.064;2022-11-15T06:41:46;95.23;;;41.77;;
57663;SDS011;43493;53.098;6.064;2022-11-15T06:44:12;84.73;;;38.67;;
57663;SDS011;43493;53.098;6.064;2022-11-15T06:46:38;78.80;;;38.83;;
57663;SDS011;43493;53.098;6.064;2022-11-15T06:49:03;85.10;;;39.33;;
57663;SDS011;43493;53.098;6.064;2022-11-15T06:51:29;78.80;;;37.47;;
57663;SDS011;43493;53.098;6.064;2022-11-15T06:53:54;86.60;;;38.40;;
57663;SDS011;43493;53.098;6.064;2022-11-15T06:56:20;89.43;;;40.87;;
57663;SDS011;43493;53.098;6.064;2022-11-15T06:58:46;91.10;;;41.17;;
57663;SDS011;43493;53.098;6.064;2022-11-15T07:01:12;78.03;;;39.37;;
57663;SDS011;43493;53.098;6.064;2022-11-15T07:03:39;79.67;;;40.70;;
57663;SDS011;43493;53.098;6.064;2022-11-15T07:06:06;79.37;;;39.87;;
57663;SDS011;43493;53.098;6.064;2022-11-15T07:08:33;86.30;;;39.73;;
57663;SDS011;43493;53.098;6.064;2022-11-15T07:11:00;79.67;;;38.93;;
57663;SDS011;43493;53.098;6.064;2022-11-15T07:13:28;86.50;;;40.93;;
57663;SDS011;43493;53.098;6.064;2022-11-15T07:15:58;76.93;;;39.67;;
57663;SDS011;43493;53.098;6.064;2022-11-15T07:18:26;82.37;;;40.70;;
57663;SDS011;43493;53.098;6.064;2022-11-15T07:20:52;81.27;;;43.20;;
57663;SDS011;43493;53.098;6.064;2022-11-15T07:23:18;82.43;;;40.10;;
57663;SDS011;43493;53.098;6.064;2022-11-15T07:25:43;75.07;;;41.57;;
57663;SDS011;43493;53.098;6.064;2022-11-15T07:28:09;70.30;;;39.57;;
57663;SDS011;43493;53.098;6.064;2022-11-15T07:30:35;65.37;;;38.60;;
57663;SDS011;43493;53.098;6.064;2022-11-15T07:33:01;77.40;;;39.23;;
57663;SDS011;43493;53.098;6.064;2022-11-15T07:35:27;70.97;;;39.73;;
57663;SDS011;43493;53.098;6.064;2022-11-15T07:38:02;62.93;;;35.27;;
57663;SDS011;43493;53.098;6.064;2022-11-15T07:40:29;67.80;;;37.58;;
57663;SDS011;43493;53.098;6.064;2022-11-15T07:43:04;68.53;;;36.97;;
57663;SDS011;43493;53.098;6.064;2022-11-15T07:45:32;66.33;;;38.07;;
57663;SDS011;43493;53.098;6.064;2022-11-15T07:48:01;65.90;;;37.87;;
57663;SDS011;43493;53.098;6.064;2022-11-15T07:50:26;69.60;;;37.57;;
57663;SDS011;43493;53.098;6.064;2022-11-15T07:52:55;61.17;;;36.63;;
57663;SDS011;43493;53.098;6.064;2022-11-15T07:55:25;65.40;;;36.33;;
57663;SDS011;43493;53.098;6.064;2022-11-15T07:57:53;58.33;;;33.30;;
57663;SDS011;43493;53.098;6.064;2022-11-15T08:00:24;61.10;;;37.40;;
57663;SDS011;43493;53.098;6.064;2022-11-15T08:02:50;59.20;;;34.80;;
57663;SDS011;43493;53.098;6.064;2022-11-15T08:05:16;54.37;;;33.87;;
57663;SDS011;43493;53.098;6.064;2022-11-15T08:07:41;54.90;;;33.67;;
57663;SDS011;43493;53.098;6.064;2022-11-15T08:10:07;53.97;;;32.80;;
57663;SDS011;43493;53.098;6.064;2022-11-15T08:12:33;52.80;;;33.77;;
57663;SDS011;43493;53.098;6.064;2022-11-15T08:14:59;52.40;;;35.53;;
57663;SDS011;43493;53.098;6.064;2022-11-15T08:17:25;56.43;;;34.57;;
57663;SDS011;43493;53.098;6.064;2022-11-15T08:19:51;56.30;;;34.57;;
57663;SDS011;43493;53.098;6.064;2022-11-15T08:22:17;54.60;;;35.70;;
57663;SDS011;43493;53.098;6.064;2022-11-15T08:24:43;51.20;;;34.03;;
57663;SDS011;43493;53.098;6.064;2022-11-15T08:27:09;49.87;;;32.60;;
57663;SDS011;43493;53.098;6.064;2022-11-15T08:29:43;49.33;;;33.67;;
57663;SDS011;43493;53.098;6.064;2022-11-15T08:32:09;48.33;;;33.63;;
57663;SDS011;43493;53.098;6.064;2022-11-15T08:34:36;51.33;;;31.70;;
57663;SDS011;43493;53.098;6.064;2022-11-15T08:37:02;47.10;;;31.93;;
57663;SDS011;43493;53.098;6.064;2022-11-15T08:39:28;52.37;;;32.93;;
57663;SDS011;43493;53.098;6.064;2022-11-15T08:41:54;47.07;;;31.17;;
57663;SDS011;43493;53.098;6.064;2022-11-15T08:44:20;45.43;;;31.17;;
57663;SDS011;43493;53.098;6.064;2022-11-15T08:46:46;43.07;;;30.73;;
57663;SDS011;43493;53.098;6.064;2022-11-15T08:49:12;41.40;;;31.43;;
57663;SDS011;43493;53.098;6.064;2022-11-15T08:51:37;42.93;;;30.47;;
57663;SDS011;43493;53.098;6.064;2022-11-15T08:54:03;41.53;;;29.53;;
57663;SDS011;43493;53.098;6.064;2022-11-15T08:56:29;45.27;;;32.73;;
57663;SDS011;43493;53.098;6.064;2022-11-15T08:58:54;47.10;;;30.03;;
57663;SDS011;43493;53.098;6.064;2022-11-15T09:01:20;45.20;;;31.87;;
57663;SDS011;43493;53.098;6.064;2022-11-15T09:03:46;39.20;;;30.30;;
57663;SDS011;43493;53.098;6.064;2022-11-15T09:06:12;46.20;;;30.50;;
57663;SDS011;43493;53.098;6.064;2022-11-15T09:08:39;40.97;;;28.17;;
57663;SDS011;43493;53.098;6.064;2022-11-15T09:11:05;44.87;;;29.77;;
57663;SDS011;43493;53.098;6.064;2022-11-15T09:13:31;39.47;;;26.83;;
57663;SDS011;43493;53.098;6.064;2022-11-15T09:15:57;38.60;;;27.60;;
57663;SDS011;43493;53.098;6.064;2022-11-15T09:18:24;43.30;;;28.20;;
57663;SDS011;43493;53.098;6.064;2022-11-15T09:20:50;39.83;;;27.37;;
57663;SDS011;43493;53.098;6.064;2022-11-15T09:23:16;42.17;;;28.87;;
57663;SDS011;43493;53.098;6.064;2022-11-15T09:25:41;42.30;;;28.63;;
57663;SDS011;43493;53.098;6.064;2022-11-15T09:28:07;38.27;;;27.20;;
57663;SDS011;43493;53.098;6.064;2022-11-15T09:30:33;37.67;;;27.37;;
57663;SDS011;43493;53.098;6.064;2022-11-15T09:33:05;39.23;;;25.67;;
57663;SDS011;43493;53.098;6.064;2022-11-15T09:35:35;38.40;;;27.30;;
57663;SDS011;43493;53.098;6.064;2022-11-15T09:38:01;36.73;;;25.97;;
57663;SDS011;43493;53.098;6.064;2022-11-15T09:40:27;41.37;;;27.03;;
57663;SDS011;43493;53.098;6.064;2022-11-15T09:42:59;32.93;;;24.87;;
57663;SDS011;43493;53.098;6.064;2022-11-15T09:48:57;35.10;;;25.37;;
57663;SDS011;43493;53.098;6.064;2022-11-15T09:56:36;35.13;;;24.65;;
57663;SDS011;43493;53.098;6.064;2022-11-15T10:04:29;28.30;;;22.70;;
57663;SDS011;43493;53.098;6.064;2022-11-15T10:07:03;29.83;;;22.63;;
57663;SDS011;43493;53.098;6.064;2022-11-15T10:09:51;31.53;;;22.77;;
57663;SDS011;43493;53.098;6.064;2022-11-15T10:14:50;30.60;;;23.33;;
57663;SDS011;43493;53.098;6.064;2022-11-15T10:20:26;24.88;;;20.92;;
57663;SDS011;43493;53.098;6.064;2022-11-15T10:23:00;26.50;;;20.17;;
57663;SDS011;43493;53.098;6.064;2022-11-15T10:25:31;29.07;;;21.20;;
57663;SDS011;43493;53.098;6.064;2022-11-15T10:30:54;27.00;;;19.83;;
57663;SDS011;43493;53.098;6.064;2022-11-15T10:33:37;30.07;;;20.53;;
57663;SDS011;43493;53.098;6.064;2022-11-15T10:41:15;25.70;;;19.93;;
57663;SDS011;43493;53.098;6.064;2022-11-15T10:44:00;27.90;;;19.63;;
57663;SDS011;43493;53.098;6.064;2022-11-15T10:46:26;29.37;;;20.17;;
57663;SDS011;43493;53.098;6.064;2022-11-15T10:48:52;27.90;;;18.93;;
57663;SDS011;43493;53.098;6.064;2022-11-15T10:51:38;27.57;;;20.80;;
57663;SDS011;43493;53.098;6.064;2022-11-15T10:54:27;27.63;;;19.30;;
57663;SDS011;43493;53.098;6.064;2022-11-15T10:57:07;26.90;;;18.23;;
57663;SDS011;43493;53.098;6.064;2022-11-15T10:59:38;26.40;;;17.63;;
57663;SDS011;43493;53.098;6.064;2022-11-15T11:04:55;21.47;;;17.47;;
57663;SDS011;43493;53.098;6.064;2022-11-15T11:07:23;22.60;;;16.67;;
57663;SDS011;43493;53.098;6.064;2022-11-15T11:10:04;20.83;;;16.00;;
57663;SDS011;43493;53.098;6.064;2022-11-15T11:12:44;23.77;;;15.67;;
57663;SDS011;43493;53.098;6.064;2022-11-15T11:15:14;22.37;;;16.23;;
57663;SDS011;43493;53.098;6.064;2022-11-15T11:20:51;19.70;;;14.40;;
57663;SDS011;43493;53.098;6.064;2022-11-15T11:32:03;14.83;;;11.17;;
57663;SDS011;43493;53.098;6.064;2022-11-15T11:34:58;14.77;;;11.47;;
57663;SDS011;43493;53.098;6.064;2022-11-15T11:40:37;13.95;;;10.13;;
57663;SDS011;43493;53.098;6.064;2022-11-15T11:46:36;15.50;;;8.40;;
57663;SDS011;43493;53.098;6.064;2022-11-15T11:49:15;17.43;;;8.67;;
57663;SDS011;43493;53.098;6.064;2022-11-15T11:52:10;10.93;;;8.27;;
57663;SDS011;43493;53.098;6.064;2022-11-15T12:00:19;11.17;;;8.00;;
57663;SDS011;43493;53.098;6.064;2022-11-15T12:03:37;10.73;;;7.43;;
57663;SDS011;43493;53.098;6.064;2022-11-15T12:05:54;12.40;;;7.20;;
57663;SDS011;43493;53.098;6.064;2022-11-15T12:11:03;13.93;;;8.57;;
57663;SDS011;43493;53.098;6.064;2022-11-15T12:13:42;10.77;;;7.68;;
57663;SDS011;43493;53.098;6.064;2022-11-15T12:18:51;11.17;;;6.93;;
57663;SDS011;43493;53.098;6.064;2022-11-15T12:21:21;11.57;;;6.87;;
57663;SDS011;43493;53.098;6.064;2022-11-15T12:24:04;9.97;;;6.70;;
57663;SDS011;43493;53.098;6.064;2022-11-15T12:26:59;8.97;;;6.43;;
57663;SDS011;43493;53.098;6.064;2022-11-15T12:29:51;10.30;;;6.73;;
57663;SDS011;43493;53.098;6.064;2022-11-15T12:34:51;12.77;;;7.53;;
57663;SDS011;43493;53.098;6.064;2022-11-15T12:45:40;10.97;;;5.67;;
57663;SDS011;43493;53.098;6.064;2022-11-15T12:58:46;7.13;;;3.30;;
57663;SDS011;43493;53.098;6.064;2022-11-15T13:12:06;5.40;;;3.43;;
57663;SDS011;43493;53.098;6.064;2022-11-15T13:14:53;8.10;;;3.17;;
57663;SDS011;43493;53.098;6.064;2022-11-15T13:17:34;6.80;;;3.03;;
57663;SDS011;43493;53.098;6.064;2022-11-15T13:22:41;5.23;;;3.40;;
57663;SDS011;43493;53.098;6.064;2022-11-15T13:27:53;7.27;;;3.70;;
57663;SDS011;43493;53.098;6.064;2022-11-15T13:30:23;7.43;;;3.07;;
57663;SDS011;43493;53.098;6.064;2022-11-15T13:32:52;10.13;;;3.77;;
57663;SDS011;43493;53.098;6.064;2022-11-15T13:35:22;5.87;;;3.67;;
57663;SDS011;43493;53.098;6.064;2022-11-15T13:37:53;5.20;;;2.90;;
57663;SDS011;43493;53.098;6.064;2022-11-15T13:42:55;6.68;;;2.65;;
57663;SDS011;43493;53.098;6.064;2022-11-15T13:45:22;6.10;;;3.17;;
57663;SDS011;43493;53.098;6.064;2022-11-15T13:47:53;7.30;;;3.23;;
57663;SDS011;43493;53.098;6.064;2022-11-15T13:50:21;5.80;;;2.93;;
57663;SDS011;43493;53.098;6.064;2022-11-15T13:52:52;6.97;;;2.93;;
57663;SDS011;43493;53.098;6.064;2022-11-15T13:55:19;7.73;;;3.00;;
57663;SDS011;43493;53.098;6.064;2022-11-15T13:57:57;4.73;;;2.60;;
57663;SDS011;43493;53.098;6.064;2022-11-15T14:00:35;5.47;;;2.50;;
57663;SDS011;43493;53.098;6.064;2022-11-15T14:03:21;3.77;;;2.17;;
57663;SDS011;43493;53.098;6.064;2022-11-15T14:08:37;6.20;;;2.60;;
57663;SDS011;43493;53.098;6.064;2022-11-15T14:11:24;6.57;;;2.67;;
57663;SDS011;43493;53.098;6.064;2022-11-15T14:16:34;4.37;;;2.23;;
57663;SDS011;43493;53.098;6.064;2022-11-15T14:19:02;6.13;;;2.50;;
57663;SDS011;43493;53.098;6.064;2022-11-15T14:21:29;5.50;;;2.30;;
57663;SDS011;43493;53.098;6.064;2022-11-15T14:26:46;7.40;;;2.50;;
57663;SDS011;43493;53.098;6.064;2022-11-15T14:29:26;7.10;;;2.33;;
57663;SDS011;43493;53.098;6.064;2022-11-15T14:31:53;7.53;;;2.10;;
57663;SDS011;43493;53.098;6.064;2022-11-15T14:34:37;6.60;;;2.57;;
57663;SDS011;43493;53.098;6.064;2022-11-15T14:37:03;5.80;;;2.53;;
57663;SDS011;43493;53.098;6.064;2022-11-15T14:39:29;6.87;;;2.37;;
57663;SDS011;43493;53.098;6.064;2022-11-15T14:41:55;4.77;;;2.03;;
57663;SDS011;43493;53.098;6.064;2022-11-15T14:44:20;5.57;;;2.10;;
57663;SDS011;43493;53.098;6.064;2022-11-15T14:46:47;6.70;;;2.17;;
57663;SDS011;43493;53.098;6.064;2022-11-15T14:49:13;5.07;;;2.20;;
57663;SDS011;43493;53.098;6.064;2022-11-15T14:51:40;4.67;;;2.33;;
57663;SDS011;43493;53.098;6.064;2022-11-15T14:54:09;7.57;;;2.03;;
57663;SDS011;43493;53.098;6.064;2022-11-15T14:56:35;5.87;;;1.87;;
57663;SDS011;43493;53.098;6.064;2022-11-15T14:59:01;7.33;;;2.00;;
57663;SDS011;43493;53.098;6.064;2022-11-15T15:01:27;5.10;;;1.60;;
57663;SDS011;43493;53.098;6.064;2022-11-15T15:03:52;6.10;;;1.80;;
57663;SDS011;43493;53.098;6.064;2022-11-15T15:06:22;4.97;;;2.03;;
57663;SDS011;43493;53.098;6.064;2022-11-15T15:08:48;5.67;;;2.03;;
57663;SDS011;43493;53.098;6.064;2022-11-15T15:11:20;5.53;;;1.93;;
57663;SDS011;43493;53.098;6.064;2022-11-15T15:13:46;4.40;;;1.70;;
57663;SDS011;43493;53.098;6.064;2022-11-15T15:16:12;5.23;;;1.60;;
57663;SDS011;43493;53.098;6.064;2022-11-15T15:18:38;4.73;;;1.73;;
57663;SDS011;43493;53.098;6.064;2022-11-15T15:21:04;5.40;;;1.80;;
57663;SDS011;43493;53.098;6.064;2022-11-15T15:23:47;5.50;;;1.80;;
57663;SDS011;43493;53.098;6.064;2022-11-15T15:26:13;6.63;;;2.30;;
57663;SDS011;43493;53.098;6.064;2022-11-15T15:28:39;4.73;;;1.87;;
57663;SDS011;43493;53.098;6.064;2022-11-15T15:31:05;11.00;;;2.63;;
57663;SDS011;43493;53.098;6.064;2022-11-15T15:33:31;4.73;;;1.67;;
57663;SDS011;43493;53.098;6.064;2022-11-15T15:35:57;4.43;;;1.53;;
57663;SDS011;43493;53.098;6.064;2022-11-15T15:38:24;7.13;;;1.97;;
57663;SDS011;43493;53.098;6.064;2022-11-15T15:40:49;5.97;;;1.83;;
57663;SDS011;43493;53.098;6.064;2022-11-15T15:43:15;4.60;;;1.70;;
57663;SDS011;43493;53.098;6.064;2022-11-15T15:45:41;6.40;;;1.60;;
57663;SDS011;43493;53.098;6.064;2022-11-15T15:48:16;3.70;;;1.30;;
57663;SDS011;43493;53.098;6.064;2022-11-15T15:50:42;4.72;;;1.55;;
57663;SDS011;43493;53.098;6.064;2022-11-15T15:53:08;4.17;;;1.80;;
57663;SDS011;43493;53.098;6.064;2022-11-15T15:55:36;7.63;;;2.30;;
57663;SDS011;43493;53.098;6.064;2022-11-15T15:58:02;6.87;;;2.80;;
57663;SDS011;43493;53.098;6.064;2022-11-15T16:00:28;7.37;;;3.00;;
57663;SDS011;43493;53.098;6.064;2022-11-15T16:02:54;10.13;;;3.30;;
57663;SDS011;43493;53.098;6.064;2022-11-15T16:05:20;8.60;;;5.27;;
57663;SDS011;43493;53.098;6.064;2022-11-15T16:07:47;9.73;;;4.60;;
57663;SDS011;43493;53.098;6.064;2022-11-15T16:10:17;8.63;;;4.93;;
57663;SDS011;43493;53.098;6.064;2022-11-15T16:12:43;8.03;;;4.60;;
57663;SDS011;43493;53.098;6.064;2022-11-15T16:15:09;9.47;;;5.50;;
57663;SDS011;43493;53.098;6.064;2022-11-15T16:17:36;11.80;;;5.30;;
57663;SDS011;43493;53.098;6.064;2022-11-15T16:20:04;10.83;;;5.97;;
57663;SDS011;43493;53.098;6.064;2022-11-15T16:22:31;9.10;;;4.40;;
57663;SDS011;43493;53.098;6.064;2022-11-15T16:24:56;7.63;;;4.43;;
57663;SDS011;43493;53.098;6.064;2022-11-15T16:27:22;6.80;;;4.43;;
57663;SDS011;43493;53.098;6.064;2022-11-15T16:29:48;9.13;;;4.83;;
57663;SDS011;43493;53.098;6.064;2022-11-15T16:32:14;7.03;;;4.47;;
57663;SDS011;43493;53.098;6.064;2022-11-15T16:34:40;8.10;;;4.57;;
57663;SDS011;43493;53.098;6.064;2022-11-15T16:37:22;8.87;;;5.00;;
57663;SDS011;43493;53.098;6.064;2022-11-15T16:39:48;7.07;;;4.63;;
57663;SDS011;43493;53.098;6.064;2022-11-15T16:42:15;7.13;;;4.90;;
57663;SDS011;43493;53.098;6.064;2022-11-15T16:44:40;7.63;;;4.90;;
57663;SDS011;43493;53.098;6.064;2022-11-15T16:47:13;7.30;;;4.53;;
57663;SDS011;43493;53.098;6.064;2022-11-15T16:49:42;9.80;;;5.37;;
57663;SDS011;43493;53.098;6.064;2022-11-15T16:52:09;8.57;;;4.90;;
57663;SDS011;43493;53.098;6.064;2022-11-15T16:54:35;7.93;;;5.63;;
57663;SDS011;43493;53.098;6.064;2022-11-15T16:57:00;9.30;;;5.70;;
57663;SDS011;43493;53.098;6.064;2022-11-15T16:59:26;7.80;;;5.37;;